Time;durP1;ratioP1;P1;durP2;ratioP2;P2;SDS_P1;SDS_P2;PMS_P1;PMS_P2;Temp;Humidity;BMP_temperature;BMP_pressure;BME280_temperature;BME280_humidity;BME280_pressure;Samples;Min_cycle;Max_cycle;Signal;HPM_P1;HPM_P2
2021/10/29 00:00:06;;;;;;;7.95;5.47;;;;;;;12.75;57.48;99931.81;5045916;28;20046;-81
2021/10/29 00:02:35;;;;;;;7.00;4.47;;;;;;;12.70;57.91;99923.63;5054876;28;20410;-81
2021/10/29 00:05:03;;;;;;;9.30;5.03;;;;;;;12.89;57.01;99936.28;5048212;28;20060;-81
2021/10/29 00:07:30;;;;;;;7.03;5.22;;;;;;;12.83;57.24;99932.06;5059338;28;20471;-81
2021/10/29 00:09:59;;;;;;;6.35;4.93;;;;;;;12.85;57.28;99936.19;5059884;28;20049;-81
2021/10/29 00:12:27;;;;;;;7.13;5.28;;;;;;;12.79;57.21;99929.97;5059463;28;20044;-81
2021/10/29 00:14:54;;;;;;;6.38;4.60;;;;;;;12.79;57.43;99926.38;5058631;28;20056;-81
2021/10/29 00:17:22;;;;;;;6.65;4.93;;;;;;;12.85;57.28;99922.22;5057573;28;20068;-81
2021/10/29 00:19:51;;;;;;;6.80;4.80;;;;;;;12.78;57.78;99921.94;5046207;28;20058;-81
2021/10/29 00:22:18;;;;;;;8.85;4.65;;;;;;;12.85;57.97;99925.00;5048993;28;20053;-81
2021/10/29 00:24:46;;;;;;;7.35;4.85;;;;;;;12.94;57.96;99919.31;5047447;28;20060;-81
2021/10/29 00:27:13;;;;;;;7.15;5.00;;;;;;;12.93;58.00;99923.28;5058744;28;20061;-82
2021/10/29 00:29:40;;;;;;;7.32;4.72;;;;;;;12.99;58.14;99924.69;5059345;28;20053;-82
2021/10/29 00:32:08;;;;;;;9.77;6.03;;;;;;;13.07;57.72;99923.78;5059012;28;20052;-81
2021/10/29 00:34:35;;;;;;;9.95;4.30;;;;;;;13.07;58.21;99911.78;5058845;28;20478;-81
2021/10/29 00:37:06;;;;;;;8.13;5.07;;;;;;;13.22;57.72;99924.31;5053998;28;20056;-80
2021/10/29 00:39:34;;;;;;;7.85;4.43;;;;;;;13.16;57.61;99923.69;5042352;28;20407;-82
2021/10/29 00:42:02;;;;;;;5.90;4.07;;;;;;;13.25;57.36;99932.81;5055835;28;20474;-82
2021/10/29 00:44:30;;;;;;;6.88;5.05;;;;;;;13.27;57.58;99919.31;5039584;28;20053;-81
2021/10/29 00:46:57;;;;;;;8.15;4.85;;;;;;;13.29;57.41;99917.03;5039350;28;20061;-82
2021/10/29 00:49:25;;;;;;;9.38;5.90;;;;;;;13.30;57.61;99918.63;5037722;28;20060;-81
2021/10/29 00:51:53;;;;;;;7.10;4.28;;;;;;;13.21;57.25;99917.91;5038409;28;20049;-82
2021/10/29 00:54:22;;;;;;;6.80;4.82;;;;;;;13.30;57.04;99926.22;5042186;28;20525;-81
2021/10/29 00:56:50;;;;;;;8.02;4.85;;;;;;;13.27;57.05;99922.09;5058444;28;20052;-81
2021/10/29 00:59:19;;;;;;;7.43;4.97;;;;;;;13.18;57.58;99915.78;5058131;28;20413;-81
2021/10/29 01:01:47;;;;;;;9.10;4.57;;;;;;;13.34;57.03;99925.19;5058364;28;20053;-82
2021/10/29 01:04:15;;;;;;;6.15;4.28;;;;;;;13.35;56.54;99918.41;5058575;28;20045;-81
2021/10/29 01:06:43;;;;;;;7.03;4.72;;;;;;;13.33;57.21;99909.56;5058936;28;20056;-81
2021/10/29 01:09:10;;;;;;;7.28;4.63;;;;;;;13.36;56.46;99917.25;5057772;28;20056;-81
2021/10/29 01:11:39;;;;;;;8.32;4.68;;;;;;;13.41;56.29;99935.78;5058309;28;20053;-82
2021/10/29 01:14:07;;;;;;;7.93;5.20;;;;;;;13.35;56.56;99914.78;5057916;28;20068;-81
2021/10/29 01:16:34;;;;;;;8.02;4.95;;;;;;;13.28;56.71;99906.94;5058430;28;20049;-81
2021/10/29 01:19:01;;;;;;;6.72;4.88;;;;;;;13.33;56.84;99906.78;5058376;28;20049;-82
2021/10/29 01:21:31;;;;;;;7.85;4.97;;;;;;;13.18;56.73;99911.00;5057723;28;20049;-82
2021/10/29 01:23:58;;;;;;;7.38;4.63;;;;;;;13.23;56.52;99906.34;5057981;28;20056;-82
2021/10/29 01:26:26;;;;;;;6.95;4.57;;;;;;;13.15;57.13;99906.09;5057886;28;20056;-81
2021/10/29 01:28:55;;;;;;;6.47;4.47;;;;;;;13.23;56.75;99906.34;5058367;28;20048;-82
2021/10/29 01:31:22;;;;;;;7.45;4.93;;;;;;;13.29;56.43;99899.41;5049213;28;20410;-81
2021/10/29 01:33:50;;;;;;;6.50;4.15;;;;;;;13.27;56.61;99899.72;5037405;28;20079;-82
2021/10/29 01:36:18;;;;;;;7.15;4.45;;;;;;;13.06;56.78;99891.41;5042992;28;20064;-81
2021/10/29 01:38:50;;;;;;;7.45;4.75;;;;;;;13.27;56.45;99884.91;5057399;28;20053;-81
2021/10/29 01:41:17;;;;;;;8.68;4.95;;;;;;;13.28;56.61;99878.97;5059857;28;20057;-82
2021/10/29 01:43:46;;;;;;;7.50;5.30;;;;;;;13.18;56.38;99879.41;5057355;28;20048;-82
2021/10/29 01:46:15;;;;;;;7.50;4.63;;;;;;;13.34;56.10;99879.59;5057762;28;20053;-82
2021/10/29 01:48:44;;;;;;;8.30;4.67;;;;;;;13.26;56.04;99878.50;5052226;28;20056;-82
2021/10/29 01:51:11;;;;;;;6.25;4.25;;;;;;;13.43;55.21;99876.69;5050217;28;20053;-81
2021/10/29 01:53:39;;;;;;;6.13;4.50;;;;;;;13.38;55.47;99866.56;5057078;28;20437;-82
2021/10/29 01:56:07;;;;;;;7.82;4.40;;;;;;;13.39;55.23;99882.16;5057817;28;20056;-82
2021/10/29 01:58:35;;;;;;;7.03;4.40;;;;;;;13.26;55.58;99864.53;5055186;28;20052;-81
2021/10/29 02:01:04;;;;;;;7.55;4.63;;;;;;;13.28;55.93;99870.59;5047515;28;20060;-82
2021/10/29 02:03:33;;;;;;;8.07;4.82;;;;;;;13.26;56.21;99863.72;5037900;28;20053;-81
2021/10/29 02:06:00;;;;;;;7.27;4.50;;;;;;;13.36;55.89;99852.91;5040762;28;20053;-81
2021/10/29 02:08:28;;;;;;;7.60;4.10;;;;;;;13.33;55.84;99848.03;5039206;28;20543;-81
2021/10/29 02:10:55;;;;;;;6.45;4.88;;;;;;;13.38;55.81;99849.78;5048173;28;20509;-82
2021/10/29 02:13:25;;;;;;;7.72;4.15;;;;;;;13.44;55.12;99850.34;5037175;28;20056;-82
2021/10/29 02:15:52;;;;;;;9.15;4.55;;;;;;;13.31;55.86;99846.72;5037251;28;20052;-82
2021/10/29 02:18:19;;;;;;;6.93;4.13;;;;;;;13.49;54.99;99845.34;5037188;28;20057;-81
2021/10/29 02:20:49;;;;;;;6.22;4.53;;;;;;;13.44;55.28;99844.75;5047474;28;20067;-81
2021/10/29 02:23:16;;;;;;;;;;;;;;;13.37;55.35;99839.75;5043814;28;20061;-81
2021/10/29 02:25:45;;;;;;;6.72;3.75;;;;;;;13.37;55.59;99840.53;5036955;28;19928;-82
2021/10/29 02:28:13;;;;;;;6.80;4.43;;;;;;;13.30;55.52;99840.31;5047657;28;20056;-81
2021/10/29 02:30:43;;;;;;;6.60;4.55;;;;;;;13.26;55.81;99830.97;5057674;28;20490;-82
2021/10/29 02:33:10;;;;;;;;;;;;;;;13.36;55.48;99833.34;5056866;28;20059;-81
2021/10/29 02:35:37;;;;;;;9.68;5.40;;;;;;;13.35;55.76;99839.28;5046421;28;20397;-81
2021/10/29 02:38:05;;;;;;;6.65;4.53;;;;;;;13.34;56.07;99824.47;5056304;28;20049;-82
2021/10/29 02:40:32;;;;;;;6.60;3.88;;;;;;;13.42;55.88;99819.94;5056595;28;20052;-81
2021/10/29 02:43:01;;;;;;;7.10;4.50;;;;;;;13.35;55.70;99822.47;5044534;28;20056;-82
2021/10/29 02:45:29;;;;;;;7.43;4.68;;;;;;;13.41;55.73;99818.28;5036773;28;20053;-82
2021/10/29 02:47:57;;;;;;;8.10;4.57;;;;;;;13.47;55.56;99818.88;5042172;28;20045;-81
2021/10/29 02:50:26;;;;;;;7.97;4.53;;;;;;;13.43;55.40;99818.75;5055961;28;20064;-81
2021/10/29 02:52:53;;;;;;;6.68;4.60;;;;;;;13.62;54.77;99817.38;5052924;28;20056;-82
2021/10/29 02:55:21;;;;;;;8.65;4.88;;;;;;;13.68;54.48;99811.16;5034693;28;20041;-81
2021/10/29 02:57:48;;;;;;;5.95;4.35;;;;;;;13.72;54.61;99803.69;5043039;28;20445;-82
2021/10/29 03:00:18;;;;;;;6.82;4.30;;;;;;;13.69;54.47;99801.63;5045032;28;20054;-82
2021/10/29 03:02:46;;;;;;;6.93;4.53;;;;;;;13.69;54.55;99790.44;5042174;28;20048;-82
2021/10/29 03:05:15;;;;;;;5.75;4.30;;;;;;;13.66;54.21;99802.31;5050981;28;20394;-82
2021/10/29 03:07:43;;;;;;;7.43;4.68;;;;;;;13.75;54.39;99788.19;5056039;28;20052;-81
2021/10/29 03:10:12;;;;;;;7.93;4.88;;;;;;;13.65;54.53;99792.28;5056114;28;20045;-82
2021/10/29 03:12:43;;;;;;;5.90;4.22;;;;;;;13.75;54.05;99783.41;5058127;28;20060;-82
2021/10/29 03:15:12;;;;;;;7.88;4.88;;;;;;;13.79;54.37;99795.50;5059155;28;20053;-81
2021/10/29 03:17:40;;;;;;;6.70;4.35;;;;;;;13.79;54.13;99795.50;5059550;28;20059;-81
2021/10/29 03:20:09;;;;;;;6.68;4.47;;;;;;;13.87;54.05;99790.16;5059745;28;20045;-82
2021/10/29 03:22:39;;;;;;;7.90;4.85;;;;;;;13.81;54.17;99787.56;5058855;28;20052;-81
2021/10/29 03:25:07;;;;;;;6.80;4.63;;;;;;;13.74;54.34;99781.78;5059102;28;20056;-81
2021/10/29 03:27:35;;;;;;;8.50;4.55;;;;;;;13.84;53.83;99780.47;5057976;28;20052;-81
2021/10/29 03:30:03;;;;;;;6.68;4.30;;;;;;;13.85;54.19;99786.88;5058677;28;20421;-81
2021/10/29 03:32:30;;;;;;;8.15;4.88;;;;;;;13.78;54.11;99782.69;5058499;28;20505;-82
2021/10/29 03:34:58;;;;;;;6.97;4.60;;;;;;;13.79;54.00;99789.09;5059590;28;20061;-82
2021/10/29 03:40:23;;;;;;;8.35;5.05;;;;;;;13.79;53.94;99780.72;5002120;28;20058;-81
2021/10/29 03:43:01;;;;;;;7.82;5.05;;;;;;;13.80;54.23;99780.38;5058535;28;20053;-82
2021/10/29 03:45:28;;;;;;;7.40;5.28;;;;;;;13.75;54.09;99777.81;5046175;28;20049;-82
2021/10/29 03:47:58;;;;;;;7.10;4.30;;;;;;;13.83;53.73;99778.03;5038411;28;20446;-82
2021/10/29 03:50:28;;;;;;;6.97;4.60;;;;;;;13.87;53.63;99767.75;5039457;28;20053;-82
2021/10/29 03:52:59;;;;;;;6.13;4.60;;;;;;;13.84;53.87;99762.84;5040053;28;20059;-82
2021/10/29 03:55:33;;;;;;;7.68;4.60;;;;;;;13.86;53.39;99766.09;5052963;28;20064;-82
2021/10/29 03:58:01;;;;;;;7.53;4.20;;;;;;;13.75;53.97;99766.63;5049559;28;20516;-82
2021/10/29 04:00:30;;;;;;;7.45;4.45;;;;;;;13.80;53.63;99771.16;5058877;28;20057;-82
2021/10/29 04:03:00;;;;;;;6.93;4.32;;;;;;;13.79;53.90;99759.13;5058956;28;20080;-82
2021/10/29 04:05:29;;;;;;;5.50;3.55;;;;;;;13.75;53.32;99760.19;5055225;28;20040;-82
2021/10/29 04:07:56;;;;;;;6.82;3.70;;;;;;;13.77;53.81;99755.91;5059294;28;20052;-82
2021/10/29 04:10:26;;;;;;;7.80;4.10;;;;;;;13.77;53.57;99758.69;5057906;28;20064;-82
2021/10/29 04:12:57;;;;;;;5.22;3.75;;;;;;;13.74;53.79;99758.56;5053892;28;20046;-82
2021/10/29 04:15:24;;;;;;;5.88;4.00;;;;;;;13.84;53.16;99757.25;5039117;28;20060;-81
2021/10/29 04:17:52;;;;;;;6.10;4.10;;;;;;;13.87;53.21;99748.97;5044801;28;20052;-81
2021/10/29 04:20:19;;;;;;;7.60;4.32;;;;;;;13.79;53.21;99749.91;5053553;28;20390;-81
2021/10/29 04:22:48;;;;;;;6.00;4.05;;;;;;;13.85;53.05;99748.50;5057698;28;20079;-82
2021/10/29 04:25:15;;;;;;;5.75;3.90;;;;;;;13.88;52.81;99746.97;5058905;28;20053;-82
2021/10/29 04:27:45;;;;;;;6.88;3.60;;;;;;;13.98;52.38;99743.69;5059167;28;20045;-82
2021/10/29 04:30:17;;;;;;;5.10;3.08;;;;;;;13.93;52.69;99746.75;5058757;28;20083;-82
2021/10/29 04:32:44;;;;;;;8.23;3.60;;;;;;;14.03;52.08;99740.66;5058760;28;20057;-82
2021/10/29 04:35:12;;;;;;;6.10;3.50;;;;;;;14.02;52.21;99742.59;5047960;28;20045;-81
2021/10/29 04:37:41;;;;;;;7.85;4.03;;;;;;;13.95;52.33;99739.59;5057269;28;20063;-81
2021/10/29 04:40:10;;;;;;;4.85;3.25;;;;;;;13.99;52.44;99734.13;5057972;28;20053;-81
2021/10/29 04:42:39;;;;;;;6.40;3.60;;;;;;;14.03;52.06;99737.84;5058330;28;20057;-81
2021/10/29 04:45:08;;;;;;;10.82;4.30;;;;;;;14.08;51.92;99734.78;5057476;28;20052;-81
2021/10/29 04:47:37;;;;;;;5.03;3.83;;;;;;;14.08;51.92;99729.19;5058620;28;20041;-81
2021/10/29 04:50:06;;;;;;;5.43;3.30;;;;;;;14.07;51.94;99730.34;5051871;28;20053;-81
2021/10/29 04:52:34;;;;;;;5.03;3.67;;;;;;;14.00;52.16;99736.53;5039960;28;20099;-82
2021/10/29 04:55:04;;;;;;;6.85;3.53;;;;;;;14.04;52.12;99728.25;5057047;28;20053;-82
2021/10/29 04:57:32;;;;;;;6.22;3.22;;;;;;;14.03;52.38;99726.66;5056931;28;20049;-82
2021/10/29 05:00:01;;;;;;;6.13;3.35;;;;;;;14.09;51.90;99721.59;5057681;28;20056;-82
2021/10/29 05:02:28;;;;;;;4.88;3.33;;;;;;;14.06;52.09;99716.72;5057231;28;20049;-82
2021/10/29 05:04:57;;;;;;;5.75;3.38;;;;;;;14.10;52.17;99715.63;5052734;28;20053;-82
2021/10/29 05:07:24;;;;;;;6.07;3.75;;;;;;;14.11;51.91;99714.47;5057917;28;20053;-81
2021/10/29 05:09:52;;;;;;;4.95;3.10;;;;;;;14.09;52.13;99714.00;5057081;28;20063;-81
2021/10/29 05:12:19;;;;;;;5.38;3.65;;;;;;;14.18;51.61;99709.06;5053075;28;20060;-81
2021/10/29 05:14:48;;;;;;;5.25;3.22;;;;;;;14.16;51.56;99707.78;5055534;28;20052;-81
2021/10/29 05:17:15;;;;;;;5.30;3.00;;;;;;;14.12;51.82;99716.09;5041536;28;20045;-81
2021/10/29 05:19:43;;;;;;;4.93;3.47;;;;;;;14.10;52.04;99709.22;5051995;28;20501;-81
2021/10/29 05:22:12;;;;;;;5.18;3.03;;;;;;;14.15;51.86;99712.59;5057967;28;20468;-81
2021/10/29 05:24:39;;;;;;;6.85;3.47;;;;;;;14.18;51.52;99711.06;5058142;28;20049;-81
2021/10/29 05:27:07;;;;;;;5.25;3.45;;;;;;;14.02;52.24;99708.19;5057336;28;20041;-81
2021/10/29 05:29:34;;;;;;;5.15;3.60;;;;;;;14.14;51.92;99704.53;5055488;28;20056;-81
2021/10/29 05:32:02;;;;;;;5.15;3.60;;;;;;;14.05;52.10;99704.69;5058357;28;20053;-82
2021/10/29 05:34:30;;;;;;;7.72;3.30;;;;;;;14.11;51.73;99700.47;5054183;28;20073;-81
2021/10/29 05:36:57;;;;;;;4.78;3.03;;;;;;;14.06;51.70;99697.91;5058123;28;20506;-81
2021/10/29 05:39:26;;;;;;;5.40;3.35;;;;;;;14.15;51.98;99700.56;5053889;28;20045;-81
2021/10/29 05:41:53;;;;;;;4.78;3.05;;;;;;;13.99;52.31;99695.72;5052534;28;20045;-81
2021/10/29 05:44:21;;;;;;;6.63;3.53;;;;;;;14.05;51.96;99701.91;5047463;28;20433;-82
2021/10/29 05:46:49;;;;;;;5.82;4.63;;;;;;;14.03;52.23;99695.84;5057493;28;20048;-81
2021/10/29 05:49:17;;;;;;;6.75;3.47;;;;;;;14.06;52.40;99691.50;5058067;28;20053;-82
2021/10/29 05:51:48;;;;;;;6.07;3.22;;;;;;;14.08;52.18;99689.16;5054493;28;20049;-81
2021/10/29 05:54:37;;;;;;;4.75;3.55;;;;;;;13.96;52.45;99692.81;5055225;28;20059;-82
2021/10/29 05:57:06;;;;;;;4.57;3.50;;;;;;;14.00;52.27;99693.75;5055151;28;20053;-82
2021/10/29 05:59:35;;;;;;;4.90;3.03;;;;;;;13.96;52.42;99690.84;5056694;28;20057;-82
2021/10/29 06:02:04;;;;;;;5.85;3.42;;;;;;;13.93;52.31;99688.75;5051796;28;20058;-82
2021/10/29 06:04:32;;;;;;;5.53;2.97;;;;;;;13.93;52.55;99685.16;5051927;28;20049;-82
2021/10/29 06:07:00;;;;;;;5.20;3.20;;;;;;;13.95;52.37;99680.81;5050153;28;20402;-82
2021/10/29 06:09:27;;;;;;;4.30;3.30;;;;;;;13.81;52.10;99692.41;5050943;28;20057;-82
2021/10/29 06:11:56;;;;;;;5.20;3.03;;;;;;;13.88;52.15;99682.59;5055091;28;20048;-82
2021/10/29 06:14:26;;;;;;;4.80;2.70;;;;;;;13.93;52.39;99682.34;5055974;28;20143;-81
2021/10/29 06:16:57;;;;;;;5.10;2.83;;;;;;;13.99;51.61;99676.13;5051664;28;20045;-81
2021/10/29 06:19:24;;;;;;;5.78;3.22;;;;;;;14.02;51.28;99671.78;5056435;28;20064;-82
2021/10/29 06:21:56;;;;;;;5.88;3.17;;;;;;;14.02;51.61;99677.41;5054934;28;20051;-81
2021/10/29 06:24:25;;;;;;;4.50;2.97;;;;;;;14.09;51.18;99679.56;5048718;28;20414;-78
2021/10/29 06:26:56;;;;;;;3.78;2.42;;;;;;;14.08;51.03;99661.16;5050059;28;20063;-77
2021/10/29 06:29:24;;;;;;;5.55;3.10;;;;;;;14.08;51.21;99664.75;5047105;28;20049;-77
2021/10/29 06:31:52;;;;;;;4.93;3.07;;;;;;;14.24;50.97;99663.97;5045627;28;20048;-77
2021/10/29 06:34:20;;;;;;;5.88;3.38;;;;;;;14.31;50.86;99681.00;5051254;28;20482;-77
2021/10/29 06:36:48;;;;;;;5.65;3.13;;;;;;;14.13;51.40;99667.31;5051787;28;20056;-77
2021/10/29 06:39:17;;;;;;;5.07;3.20;;;;;;;14.20;51.21;99681.50;5041221;28;20045;-77
2021/10/29 06:41:44;;;;;;;5.18;3.40;;;;;;;14.35;51.10;99679.09;5048824;28;20055;-77
2021/10/29 06:44:24;;;;;;;6.30;2.80;;;;;;;14.31;50.77;99673.41;5044782;28;20060;-77
2021/10/29 06:47:21;;;;;;;6.10;3.20;;;;;;;14.43;50.80;99680.91;5051879;28;20045;-77
2021/10/29 07:00:48;;;;;;;4.07;2.97;;;;;;;14.89;49.73;99674.88;5061556;28;20056;-81
2021/10/29 07:11:57;;;;;;;6.18;3.08;;;;;;;15.11;49.73;99679.03;5045302;28;20064;-83
2021/10/29 07:41:58;;;;;;;4.97;2.70;;;;;;;16.61;46.95;99703.84;5047401;28;20065;-84
2021/10/29 07:44:28;;;;;;;4.25;2.95;;;;;;;17.37;45.17;99706.72;5049829;28;20053;-82
2021/10/29 07:46:56;;;;;;;6.18;3.60;;;;;;;17.69;44.77;99685.84;5047474;28;20053;-82
2021/10/29 07:49:28;;;;;;;5.05;3.45;;;;;;;18.28;43.60;99695.44;5053331;28;20093;-82
2021/10/29 07:51:57;;;;;;;5.63;3.75;;;;;;;18.70;42.61;99699.09;5053128;28;20048;-82
2021/10/29 07:54:25;;;;;;;11.32;3.47;;;;;;;19.10;41.60;99703.09;5054379;28;20425;-82
2021/10/29 07:56:53;;;;;;;5.45;3.30;;;;;;;19.33;40.69;99697.22;5048019;28;20041;-83
2021/10/29 07:59:22;;;;;;;4.57;3.22;;;;;;;19.87;40.57;99695.53;5046281;28;20065;-82
2021/10/29 08:01:54;;;;;;;5.97;3.20;;;;;;;19.57;41.20;99695.72;5053406;28;20053;-86
2021/10/29 08:04:22;;;;;;;6.38;3.40;;;;;;;19.55;40.93;99706.63;5046069;28;20061;-87
2021/10/29 08:06:51;;;;;;;5.15;3.63;;;;;;;19.64;40.94;99693.75;5052222;28;20063;-85
2021/10/29 08:09:20;;;;;;;6.05;3.90;;;;;;;20.21;40.10;99698.09;5052773;28;20521;-86
2021/10/29 08:11:47;;;;;;;;;;;;;;;19.97;39.74;99696.75;5045949;28;20061;-82
2021/10/29 08:14:16;;;;;;;5.07;3.80;;;;;;;19.92;40.20;99700.78;5049260;28;19921;-86
2021/10/29 08:16:43;;;;;;;7.17;3.90;;;;;;;19.82;40.10;99693.91;5051755;28;20060;-84
2021/10/29 08:19:13;;;;;;;6.82;3.83;;;;;;;20.23;39.88;99701.31;5044196;28;20056;-84
2021/10/29 08:21:43;;;;;;;6.03;3.10;;;;;;;20.49;39.20;99694.50;5043969;28;20054;-83
2021/10/29 08:24:17;;;;;;;6.15;3.45;;;;;;;20.77;38.79;99695.81;5041841;28;20054;-87
2021/10/29 08:26:46;;;;;;;5.60;3.60;;;;;;;20.68;38.75;99693.34;5051060;28;20041;-87
2021/10/29 08:29:13;;;;;;;5.22;3.78;;;;;;;20.63;38.62;99680.41;5035131;28;20060;-89
2021/10/29 08:31:41;;;;;;;7.20;3.67;;;;;;;20.42;39.39;99692.47;5048339;28;20048;-87
2021/10/29 08:34:08;;;;;;;4.85;3.95;;;;;;;19.95;39.99;99697.19;5049287;28;20060;-89
2021/10/29 08:36:39;;;;;;;5.35;3.88;;;;;;;19.58;41.05;99700.19;5044274;28;20129;-91
2021/10/29 08:39:07;;;;;;;6.10;4.10;;;;;;;19.12;41.72;99695.03;5047939;28;20411;-88
2021/10/29 08:41:36;;;;;;;4.78;3.85;;;;;;;18.79;42.88;99717.34;5052905;28;20064;-88
2021/10/29 08:44:06;;;;;;;5.90;4.30;;;;;;;18.68;43.51;99716.41;5051873;28;20060;-89
2021/10/29 08:46:35;;;;;;;6.72;4.18;;;;;;;18.88;43.04;99725.50;5048201;28;20064;-89
2021/10/29 08:49:05;;;;;;;5.75;4.25;;;;;;;18.51;43.79;99717.84;5055999;28;20056;-89
2021/10/29 08:51:34;;;;;;;5.18;3.97;;;;;;;18.44;44.03;99712.94;5049127;28;20053;-89
2021/10/29 08:54:02;;;;;;;6.82;4.53;;;;;;;18.51;43.80;99717.03;5048318;28;21427;-84
2021/10/29 08:56:29;;;;;;;6.57;4.63;;;;;;;18.66;43.84;99713.94;5057156;28;20048;-84
2021/10/29 08:59:08;;;;;;;5.82;4.63;;;;;;;18.67;44.03;99704.31;5050319;28;20063;-84
2021/10/29 09:01:55;;;;;;;6.40;4.70;;;;;;;18.23;44.67;99707.88;5048233;28;20466;-88
2021/10/29 09:04:31;;;;;;;6.95;4.47;;;;;;;18.20;45.36;99708.63;5048667;28;20060;-88
2021/10/29 09:10:31;;;;;;;5.82;4.05;;;;;;;18.36;44.93;99694.31;5050541;28;20068;-84
2021/10/29 09:32:33;;;;;;;8.43;3.88;;;;;;;18.13;45.93;99677.56;5048886;28;20060;-85
2021/10/29 09:35:05;;;;;;;5.03;3.95;;;;;;;18.53;45.15;99675.97;5037890;28;20057;-87
2021/10/29 09:37:37;;;;;;;6.32;4.03;;;;;;;18.91;43.89;99671.09;5041172;28;20057;-88
2021/10/29 09:40:10;;;;;;;6.28;4.10;;;;;;;18.90;43.49;99665.81;5043086;28;20053;-86
2021/10/29 09:42:39;;;;;;;6.53;3.72;;;;;;;18.92;43.23;99672.72;5048370;28;20052;-88
2021/10/29 09:45:14;;;;;;;6.63;4.25;;;;;;;18.79;43.75;99662.91;5050021;28;20045;-89
2021/10/29 09:47:47;;;;;;;5.03;3.13;;;;;;;18.61;44.16;99668.38;5045942;28;20056;-86
2021/10/29 09:50:33;;;;;;;5.60;3.70;;;;;;;18.93;43.46;99676.34;5084350;27;20613;-53
2021/10/29 09:53:08;;;;;;;7.55;4.25;;;;;;;18.72;43.28;99676.94;5065394;28;20534;-55
2021/10/29 09:58:21;;;;;;;4.75;3.80;;;;;;;18.63;43.97;99666.78;5061532;28;20061;-53
2021/10/29 10:00:50;;;;;;;6.43;4.00;;;;;;;18.87;43.06;99673.06;5067094;28;20057;-52
2021/10/29 10:03:21;;;;;;;7.47;4.20;;;;;;;18.17;44.43;99661.50;5059279;28;20053;-55
2021/10/29 10:05:52;;;;;;;6.07;3.92;;;;;;;18.13;44.87;99660.66;5055879;28;20459;-53
2021/10/29 10:08:21;;;;;;;6.80;4.20;;;;;;;17.75;45.71;99664.59;5063614;28;20053;-53
2021/10/29 10:10:51;;;;;;;7.72;4.22;;;;;;;17.96;45.29;99659.25;5063698;28;20455;-53
2021/10/29 10:13:20;;;;;;;6.07;3.95;;;;;;;17.52;46.20;99654.25;5062789;28;20057;-53
2021/10/29 10:15:54;;;;;;;6.83;4.40;;;;;;;17.24;47.01;99647.03;5061629;28;20060;-53
2021/10/29 10:18:21;;;;;;;5.53;3.95;;;;;;;17.03;47.44;99672.84;5057029;28;20056;-53
2021/10/29 10:20:51;;;;;;;4.75;3.47;;;;;;;17.03;47.36;99658.78;5063203;28;20048;-52
2021/10/29 10:23:22;;;;;;;7.00;4.00;;;;;;;17.42;46.60;99652.88;5058752;28;20067;-55
2021/10/29 10:28:51;;;;;;;8.03;4.37;;;;;;;17.57;46.57;99641.81;5044948;28;20478;-53
2021/10/29 10:40:37;;;;;;;4.15;3.40;;;;;;;19.78;41.75;99615.94;5062905;28;20051;-54
2021/10/29 10:46:09;;;;;;;4.63;3.75;;;;;;;20.13;41.10;99623.72;5068939;28;20509;-52
2021/10/29 10:48:42;;;;;;;5.03;3.63;;;;;;;21.23;39.51;99621.34;5056595;28;20060;-54
2021/10/29 10:51:54;;;;;;;4.63;3.65;;;;;;;21.94;36.56;99613.81;5060369;28;20055;-53
2021/10/29 10:54:30;;;;;;;6.50;3.28;;;;;;;23.37;34.24;99603.38;5020503;28;20054;-54
2021/10/29 10:57:07;;;;;;;5.40;3.70;;;;;;;23.09;34.21;99606.09;5023295;28;20057;-51
2021/10/29 10:59:52;;;;;;;5.43;3.75;;;;;;;23.09;34.05;99603.25;5045751;28;20057;-54
2021/10/29 11:05:33;;;;;;;4.28;3.40;;;;;;;23.55;33.82;99584.09;5033668;28;20045;-52
2021/10/29 11:11:17;;;;;;;4.75;2.97;;;;;;;22.35;35.14;99587.69;5028582;28;20500;-53
2021/10/29 11:13:57;;;;;;;4.18;3.40;;;;;;;21.93;36.04;99576.16;5047395;28;20057;-55
2021/10/29 11:16:35;;;;;;;6.75;3.47;;;;;;;21.86;35.94;99579.84;5047958;28;20057;-52
2021/10/29 11:19:07;;;;;;;4.75;2.92;;;;;;;21.32;36.60;99579.25;5051774;28;20062;-55
2021/10/29 11:21:37;;;;;;;4.13;2.83;;;;;;;20.75;37.15;99562.38;5051566;28;20064;-52
2021/10/29 11:24:07;;;;;;;6.25;3.42;;;;;;;20.25;38.69;99563.97;5044547;28;20063;-52
2021/10/29 11:26:41;;;;;;;4.40;2.97;;;;;;;20.31;38.60;99566.41;5051990;28;20056;-52
2021/10/29 11:29:10;;;;;;;5.63;2.90;;;;;;;20.43;38.70;99551.84;5049665;28;20048;-53
2021/10/29 11:31:41;;;;;;;5.75;3.60;;;;;;;20.47;38.80;99549.81;5049680;28;20396;-53
2021/10/29 11:34:12;;;;;;;4.35;2.78;;;;;;;21.28;37.55;99553.75;5050151;28;20056;-52
2021/10/29 11:36:42;;;;;;;4.50;2.80;;;;;;;21.60;36.64;99549.22;5050173;28;20065;-54
2021/10/29 11:39:11;;;;;;;4.70;2.85;;;;;;;21.38;36.92;99543.59;5049413;28;20396;-52
2021/10/29 11:41:42;;;;;;;6.97;3.38;;;;;;;21.25;37.05;99531.94;5052365;28;20045;-52
2021/10/29 11:44:12;;;;;;;5.05;2.92;;;;;;;21.63;36.52;99529.34;5050441;28;20053;-53
2021/10/29 11:46:41;;;;;;;3.38;2.50;;;;;;;21.65;36.75;99531.78;5050476;28;20075;-52
2021/10/29 11:49:10;;;;;;;4.78;3.17;;;;;;;22.78;34.58;99524.84;5048680;28;20052;-52
2021/10/29 11:51:39;;;;;;;;;;;;;;;22.20;35.16;99505.47;5050946;28;20076;-53
2021/10/29 11:54:15;;;;;;;4.25;2.70;;;;;;;23.23;33.64;99496.41;5046939;28;20291;-52
2021/10/29 11:56:49;;;;;;;3.92;2.40;;;;;;;24.52;31.56;99503.84;5050036;28;20045;-53
2021/10/29 12:07:31;;;;;;;4.28;2.40;;;;;;;24.57;31.07;99510.28;5049093;28;20068;-52
2021/10/29 12:10:04;;;;;;;3.75;2.60;;;;;;;24.83;30.73;99488.66;5048348;28;20385;-52
2021/10/29 12:12:36;;;;;;;4.03;2.45;;;;;;;25.48;29.95;99480.41;5044183;28;20048;-52
2021/10/29 12:15:08;;;;;;;4.63;2.42;;;;;;;26.34;29.17;99486.19;5046667;28;20052;-52
2021/10/29 12:17:47;;;;;;;4.20;2.70;;;;;;;25.81;28.63;99491.13;5044326;28;20056;-52
2021/10/29 12:20:17;;;;;;;;;;;;;;;25.55;29.23;99478.66;5052677;28;20052;-52
2021/10/29 12:22:47;;;;;;;3.97;3.17;;;;;;;25.14;30.05;99491.31;5046209;28;19924;-53
2021/10/29 12:25:23;;;;;;;4.63;2.83;;;;;;;25.11;30.28;99482.41;5050288;28;20052;-53
2021/10/29 12:27:58;;;;;;;4.47;2.50;;;;;;;25.26;29.86;99484.97;5038324;28;20083;-51
2021/10/29 12:30:32;;;;;;;4.55;2.50;;;;;;;25.77;29.55;99473.28;5048443;28;20044;-52
2021/10/29 12:53:22;;;;;;;4.10;2.72;;;;;;;25.38;29.86;99435.84;5047356;28;20509;-51
2021/10/29 12:59:15;;;;;;;4.53;2.35;;;;;;;25.58;29.56;99424.41;5023584;28;20364;-51
2021/10/29 13:01:54;;;;;;;3.92;2.47;;;;;;;25.03;30.71;99412.56;5049939;28;20053;-51
2021/10/29 13:04:23;;;;;;;5.15;2.47;;;;;;;23.96;31.62;99428.75;5046355;28;20063;-52
2021/10/29 13:06:58;;;;;;;4.63;2.58;;;;;;;24.86;30.93;99419.41;5057704;28;20056;-52
2021/10/29 13:09:28;;;;;;;3.05;2.38;;;;;;;24.31;31.89;99430.19;5047752;28;20387;-57
2021/10/29 13:12:01;;;;;;;4.28;2.28;;;;;;;25.03;30.75;99423.94;5042637;28;20427;-53
2021/10/29 13:14:32;;;;;;;3.40;2.17;;;;;;;24.78;31.51;99427.31;5048211;28;20071;-52
2021/10/29 13:17:03;;;;;;;4.55;2.55;;;;;;;25.52;30.24;99415.56;5045871;28;20049;-53
2021/10/29 13:19:50;;;;;;;3.90;2.40;;;;;;;24.83;31.07;99414.59;5044918;28;20049;-52
2021/10/29 14:03:56;;;;;;;3.58;2.60;;;;;;;21.81;35.70;99387.50;4996387;28;20068;-53
2021/10/29 14:28:41;;;;;;;4.32;2.45;;;;;;;21.55;36.68;99365.47;5046009;28;20060;-52
2021/10/29 14:31:12;;;;;;;3.50;2.55;;;;;;;21.62;37.01;99376.72;5043373;28;20041;-54
2021/10/29 14:33:46;;;;;;;3.88;2.33;;;;;;;21.21;37.52;99388.72;5045116;28;20056;-52
2021/10/29 14:36:13;;;;;;;3.20;2.17;;;;;;;20.99;37.82;99386.00;5050312;28;20063;-53
2021/10/29 14:38:52;;;;;;;4.47;2.53;;;;;;;21.15;37.81;99387.53;5038695;28;20504;-54
2021/10/29 14:41:25;;;;;;;3.80;2.50;;;;;;;21.09;38.09;99399.28;5051147;28;20041;-52
2021/10/29 14:43:56;;;;;;;3.17;2.47;;;;;;;20.70;38.69;99378.84;5051016;28;20060;-52
2021/10/29 14:46:42;;;;;;;5.38;3.15;;;;;;;20.53;39.14;99401.09;5049021;28;20057;-53
2021/10/29 14:49:22;;;;;;;4.80;2.70;;;;;;;20.44;38.98;99380.94;5047279;28;20057;-52
2021/10/29 14:52:07;;;;;;;5.32;2.95;;;;;;;20.13;39.87;99376.94;5045950;28;20045;-52
2021/10/29 15:05:48;;;;;;;4.78;2.75;;;;;;;19.75;41.07;99380.19;5055708;28;20064;-53
2021/10/29 15:25:24;;;;;;;5.15;3.28;;;;;;;18.38;44.96;99378.16;5018935;28;20045;-54
2021/10/29 15:28:10;;;;;;;5.10;3.05;;;;;;;18.13;45.61;99376.00;5053115;28;20045;-54